Time;durP1;ratioP1;P1;durP2;ratioP2;P2;SDS_P1;SDS_P2;PMS_P1;PMS_P2;Temp;Humidity;BMP_temperature;BMP_pressure;BME280_temperature;BME280_humidity;BME280_pressure;Samples;Min_cycle;Max_cycle;Signal;HPM_P1;HPM_P2
2021/11/21 00:01:03;;;;;;;3.65;3.25;;;;;;;;;;4987715;28;80243;-47
2021/11/21 00:03:30;;;;;;;5.50;3.60;;;;;;;;;;4991432;28;81398;-47
2021/11/21 00:05:57;;;;;;;4.68;3.33;;;;;;;;;;4988337;28;80227;-47
2021/11/21 00:08:24;;;;;;;3.53;3.10;;;;;;;;;;4989432;28;80925;-46
2021/11/21 00:10:51;;;;;;;3.22;2.92;;;;;;;;;;4987246;28;80925;-47
2021/11/21 00:13:18;;;;;;;3.85;3.25;;;;;;;;;;4990990;28;81359;-47
2021/11/21 00:15:45;;;;;;;4.97;3.78;;;;;;;;;;4989215;28;80456;-45
2021/11/21 00:18:12;;;;;;;4.50;3.72;;;;;;;;;;4986895;28;81936;-43
2021/11/21 00:20:41;;;;;;;5.28;3.67;;;;;;;;;;4987119;28;81854;-44
2021/11/21 00:23:08;;;;;;;3.10;2.80;;;;;;;;;;4987462;28;80689;-44
2021/11/21 00:25:34;;;;;;;4.35;3.00;;;;;;;;;;4986763;28;80355;-44
2021/11/21 00:28:02;;;;;;;4.55;4.05;;;;;;;;;;4987349;28;81013;-44
2021/11/21 00:30:32;;;;;;;4.88;3.58;;;;;;;;;;4987278;28;81826;-47
2021/11/21 00:32:59;;;;;;;4.80;3.25;;;;;;;;;;4986770;28;81553;-46
2021/11/21 00:35:26;;;;;;;3.55;3.10;;;;;;;;;;4987322;28;80215;-45
2021/11/21 00:37:53;;;;;;;4.90;3.90;;;;;;;;;;4986963;28;81971;-44
2021/11/21 00:40:20;;;;;;;4.50;3.75;;;;;;;;;;4986967;28;81711;-45
2021/11/21 00:42:48;;;;;;;3.78;3.03;;;;;;;;;;4986491;28;81610;-44
2021/11/21 00:45:15;;;;;;;4.05;3.13;;;;;;;;;;4987157;28;80210;-44
2021/11/21 00:47:42;;;;;;;3.75;3.10;;;;;;;;;;4986730;28;80876;-44
2021/11/21 00:50:11;;;;;;;4.93;3.10;;;;;;;;;;4986933;28;81544;-44
2021/11/21 00:52:39;;;;;;;6.22;4.03;;;;;;;;;;4992761;28;80551;-44
2021/11/21 00:57:38;;;;;;;4.50;3.95;;;;;;;;;;5000125;28;81929;-45
2021/11/21 01:00:08;;;;;;;4.40;3.65;;;;;;;;;;5005576;28;80965;-45
2021/11/21 01:02:37;;;;;;;4.85;3.97;;;;;;;;;;4990858;28;80007;-46
2021/11/21 01:05:06;;;;;;;7.00;4.07;;;;;;;;;;4986199;28;80205;-44
2021/11/21 01:07:36;;;;;;;4.40;3.70;;;;;;;;;;4986506;28;80974;-47
2021/11/21 01:10:12;;;;;;;4.78;3.88;;;;;;;;;;4986030;28;82426;-46
2021/11/21 01:12:40;;;;;;;5.95;3.20;;;;;;;;;;4986801;28;81726;-43
2021/11/21 01:15:12;;;;;;;5.47;4.18;;;;;;;;;;4986435;28;80313;-46
2021/11/21 05:44:30;;;;;;;7.00;4.20;;;;;;;;;;5003495;28;80057;-60
2021/11/21 05:46:57;;;;;;;6.97;3.92;;;;;;;;;;4982665;28;80407;-51
2021/11/21 05:49:23;;;;;;;8.38;4.03;;;;;;;;;;4982363;28;81602;-54
2021/11/21 05:51:50;;;;;;;5.90;3.88;;;;;;;;;;4981638;28;80524;-57
2021/11/21 05:54:17;;;;;;;4.10;3.58;;;;;;;;;;4976756;28;82025;-57
2021/11/21 05:56:44;;;;;;;4.35;3.35;;;;;;;;;;4980971;28;81835;-57
2021/11/21 05:59:11;;;;;;;5.47;2.85;;;;;;;;;;4979898;28;81577;-58
2021/11/21 06:01:38;;;;;;;4.88;3.13;;;;;;;;;;4976234;28;80576;-56
2021/11/21 06:04:06;;;;;;;3.92;2.80;;;;;;;;;;4977921;28;80758;-55
2021/11/21 06:06:33;;;;;;;7.20;3.05;;;;;;;;;;4977237;28;81861;-56
2021/11/21 06:09:00;;;;;;;3.80;2.22;;;;;;;;;;4979202;28;81619;-57
2021/11/21 06:11:27;;;;;;;3.05;2.30;;;;;;;;;;4976794;28;80169;-57
2021/11/21 06:13:53;;;;;;;8.52;2.50;;;;;;;;;;4977413;28;81939;-55
2021/11/21 06:16:20;;;;;;;2.45;1.90;;;;;;;;;;4978707;28;81977;-55
2021/11/21 06:18:48;;;;;;;2.08;1.33;;;;;;;;;;4979888;28;81434;-53
2021/11/21 06:21:15;;;;;;;3.05;2.15;;;;;;;;;;4978789;28;80165;-55
2021/11/21 06:23:42;;;;;;;2.35;1.60;;;;;;;;;;4979366;28;80931;-54
2021/11/21 06:26:09;;;;;;;1.85;1.65;;;;;;;;;;4977128;28;81817;-57
2021/11/21 06:28:36;;;;;;;2.67;1.58;;;;;;;;;;4979208;28;81492;-57
2021/11/21 06:31:03;;;;;;;1.60;1.15;;;;;;;;;;4980224;28;80225;-55
2021/11/21 06:33:29;;;;;;;1.35;1.23;;;;;;;;;;4980090;28;80800;-60
2021/11/21 06:35:56;;;;;;;4.05;1.60;;;;;;;;;;4978570;28;81876;-51
2021/11/21 06:38:23;;;;;;;1.35;1.23;;;;;;;;;;4978702;28;81570;-57
2021/11/21 06:40:50;;;;;;;2.60;1.83;;;;;;;;;;4977880;28;80140;-56
2021/11/21 06:43:16;;;;;;;1.58;1.40;;;;;;;;;;4979056;28;82275;-55
2021/11/21 06:45:43;;;;;;;1.35;1.20;;;;;;;;;;4978187;28;81741;-55
2021/11/21 06:48:12;;;;;;;2.42;1.60;;;;;;;;;;4978556;28;81539;-54
2021/11/21 06:50:39;;;;;;;1.52;1.42;;;;;;;;;;4979620;28;80303;-53
2021/11/21 06:53:06;;;;;;;1.10;1.02;;;;;;;;;;4974839;28;82137;-54
2021/11/21 06:55:33;;;;;;;1.13;1.02;;;;;;;;;;4967919;28;81812;-51
2021/11/21 06:58:00;;;;;;;1.48;1.30;;;;;;;;;;4962261;28;81771;-54
2021/11/21 07:00:27;;;;;;;1.90;1.55;;;;;;;;;;4968517;28;80358;-57
2021/11/21 07:02:54;;;;;;;1.77;1.55;;;;;;;;;;4967230;28;81841;-52
2021/11/21 07:05:21;;;;;;;2.30;1.52;;;;;;;;;;4966823;28;81669;-54
2021/11/21 07:07:48;;;;;;;2.13;1.90;;;;;;;;;;4968196;28;81503;-57
2021/11/21 07:10:15;;;;;;;2.45;1.77;;;;;;;;;;4967499;28;80204;-57
2021/11/21 07:12:42;;;;;;;2.35;2.15;;;;;;;;;;4966311;28;81116;-57
2021/11/21 07:15:15;;;;;;;2.33;1.90;;;;;;;;;;4967516;28;81850;-57
2021/11/21 07:17:43;;;;;;;2.05;1.50;;;;;;;;;;4966199;28;81392;-54
2021/11/21 07:20:15;;;;;;;2.78;1.67;;;;;;;;;;4966575;28;80347;-54
2021/11/21 07:22:52;;;;;;;2.80;1.90;;;;;;;;;;4965946;28;81733;-53
2021/11/21 07:25:21;;;;;;;1.45;1.35;;;;;;;;;;4964880;28;81881;-49
2021/11/21 07:27:49;;;;;;;1.58;1.48;;;;;;;;;;4967647;28;81242;-55
2021/11/21 07:30:18;;;;;;;1.48;1.38;;;;;;;;;;4964158;28;80216;-51
2021/11/21 07:32:46;;;;;;;1.55;1.30;;;;;;;;;;4967161;28;82088;-53
2021/11/21 07:35:15;;;;;;;1.83;1.63;;;;;;;;;;4966311;28;81722;-54
2021/11/21 07:37:42;;;;;;;3.35;1.23;;;;;;;;;;4967104;28;81400;-58
2021/11/21 07:40:10;;;;;;;10.70;6.82;;;;;;;;;;4966153;28;80294;-51
2021/11/21 07:42:38;;;;;;;7.78;4.43;;;;;;;;;;4967036;28;82132;-61
2021/11/21 07:45:06;;;;;;;4.78;4.05;;;;;;;;;;4967845;28;81780;-60
2021/11/21 07:47:33;;;;;;;3.83;3.22;;;;;;;;;;4967966;28;81535;-58
2021/11/21 07:50:00;;;;;;;5.40;3.78;;;;;;;;;;4964240;28;80396;-60
2021/11/21 07:52:27;;;;;;;6.43;3.92;;;;;;;;;;4962326;28;82268;-66
2021/11/21 07:54:54;;;;;;;5.82;3.13;;;;;;;;;;4965732;28;81443;-64
2021/11/21 07:57:21;;;;;;;6.63;2.90;;;;;;;;;;4965062;28;81947;-64
2021/11/21 07:59:48;;;;;;;5.60;3.92;;;;;;;;;;4965776;28;80245;-62
2021/11/21 08:02:15;;;;;;;6.00;4.07;;;;;;;;;;4965541;28;81682;-61
2021/11/21 08:04:42;;;;;;;5.50;3.30;;;;;;;;;;4963222;28;81903;-59
2021/11/21 08:07:08;;;;;;;4.18;3.22;;;;;;;;;;4964021;28;81494;-61
2021/11/21 08:09:36;;;;;;;8.05;2.95;;;;;;;;;;4964198;28;80174;-62
2021/11/21 08:12:03;;;;;;;7.95;3.13;;;;;;;;;;4965882;28;80934;-64
2021/11/21 08:14:32;;;;;;;6.13;2.78;;;;;;;;;;4963515;28;81902;-60
2021/11/21 08:16:59;;;;;;;5.35;3.10;;;;;;;;;;4964334;28;80512;-63
2021/11/21 08:19:25;;;;;;;5.13;3.17;;;;;;;;;;4965004;28;80184;-60
2021/11/21 08:21:52;;;;;;;6.32;2.75;;;;;;;;;;4964225;28;81939;-61
2021/11/21 08:24:19;;;;;;;4.32;2.42;;;;;;;;;;4962726;28;81871;-60
2021/11/21 08:26:46;;;;;;;4.80;3.15;;;;;;;;;;4965639;28;81511;-70
2021/11/21 08:29:13;;;;;;;10.55;2.90;;;;;;;;;;4962947;28;80642;-68
2021/11/21 08:31:56;;;;;;;6.43;2.78;;;;;;;;;;4963232;28;82269;-58
2021/11/21 08:34:24;;;;;;;5.25;3.03;;;;;;;;;;4964689;28;81844;-61
2021/11/21 08:36:50;;;;;;;10.52;4.60;;;;;;;;;;4962948;28;80379;-65
2021/11/21 08:39:22;;;;;;;11.13;5.90;;;;;;;;;;4962193;28;80253;-69
2021/11/21 08:41:50;;;;;;;7.88;5.75;;;;;;;;;;4960911;28;81872;-60
2021/11/21 08:44:17;;;;;;;8.75;5.38;;;;;;;;;;4957996;28;81940;-60
2021/11/21 08:46:20;;;;;;;11.10;5.77;;;;;;;;;;664675;27;78712;-64
2021/11/21 08:46:42;;;;;;;11.15;7.25;;;;;;;;;;689959;28;82358;-58
2021/11/21 08:47:04;;;;;;;11.45;8.25;;;;;;;;;;687990;28;81185;-59
2021/11/21 08:47:26;;;;;;;10.63;7.55;;;;;;;;;;628195;27;82272;-62
2021/11/21 08:48:15;;;;;;;6.77;5.63;;;;;;;;;;657122;28;114436;-61
2021/11/21 08:48:36;;;;;;;16.20;7.28;;;;;;;;;;647339;28;114281;-60
2021/11/21 08:51:45;;;;;;;11.68;7.53;;;;;;;;;;4956396;27;80277;-61
2021/11/21 08:54:15;;;;;;;12.95;6.18;;;;;;;;;;4962284;28;81059;-61
2021/11/21 08:56:45;;;;;;;12.60;7.55;;;;;;;;;;4951874;28;80275;-63
2021/11/21 08:59:13;;;;;;;22.02;6.85;;;;;;;;;;4954848;28;80472;-62
2021/11/21 09:01:40;;;;;;;12.68;7.90;;;;;;;;;;4933361;27;81942;-61
2021/11/21 09:04:07;;;;;;;14.60;9.15;;;;;;;;;;4952359;28;81815;-50
2021/11/21 09:06:34;;;;;;;11.85;7.30;;;;;;;;;;4931982;28;81613;-46
2021/11/21 09:09:01;;;;;;;19.85;7.53;;;;;;;;;;4956303;28;80679;-45
2021/11/21 09:11:28;;;;;;;9.02;5.47;;;;;;;;;;4956691;28;81048;-50
2021/11/21 09:13:55;;;;;;;14.68;9.57;;;;;;;;;;4956756;28;82107;-50
2021/11/21 09:16:22;;;;;;;15.48;9.88;;;;;;;;;;4956935;28;81666;-52
2021/11/21 09:18:49;;;;;;;13.20;11.00;;;;;;;;;;4958617;28;80571;-51
2021/11/21 09:21:16;;;;;;;12.15;9.77;;;;;;;;;;4958177;28;82721;-46
2021/11/21 09:23:43;;;;;;;13.73;9.52;;;;;;;;;;4959597;28;81676;-48
2021/11/21 09:26:10;;;;;;;13.02;8.27;;;;;;;;;;4961036;28;80362;-53
2021/11/21 09:28:37;;;;;;;16.73;7.63;;;;;;;;;;4958443;28;81410;-51
2021/11/21 09:31:04;;;;;;;11.20;7.30;;;;;;;;;;4959414;28;82022;-53
2021/11/21 09:33:30;;;;;;;7.75;6.20;;;;;;;;;;4959595;28;80716;-56
2021/11/21 09:35:57;;;;;;;8.23;5.82;;;;;;;;;;4960087;28;81579;-53
2021/11/21 09:38:26;;;;;;;7.30;5.55;;;;;;;;;;4959083;28;80232;-49
2021/11/21 09:40:54;;;;;;;10.93;5.78;;;;;;;;;;4952939;28;82107;-51
2021/11/21 09:43:22;;;;;;;11.85;7.07;;;;;;;;;;4961203;28;81897;-50
2021/11/21 09:45:49;;;;;;;6.38;4.78;;;;;;;;;;4958398;28;81486;-52
2021/11/21 09:48:16;;;;;;;5.65;4.55;;;;;;;;;;4957945;28;80613;-56
2021/11/21 09:50:44;;;;;;;9.13;4.55;;;;;;;;;;4959257;28;81785;-49
2021/11/21 09:53:12;;;;;;;11.10;4.90;;;;;;;;;;4958687;28;81747;-46
2021/11/21 09:55:40;;;;;;;5.68;4.20;;;;;;;;;;4958907;28;81308;-48
2021/11/21 09:58:07;;;;;;;10.82;5.13;;;;;;;;;;4956132;28;80240;-46
2021/11/21 10:00:34;;;;;;;6.95;4.43;;;;;;;;;;4961844;28;81926;-47
2021/11/21 10:03:06;;;;;;;8.32;4.38;;;;;;;;;;4949353;28;81622;-50
2021/11/21 10:05:35;;;;;;;6.55;3.72;;;;;;;;;;4949462;28;80784;-52
2021/11/21 10:08:12;;;;;;;8.63;4.28;;;;;;;;;;4948269;28;80304;-51
2021/11/21 10:11:03;;;;;;;5.60;3.90;;;;;;;;;;4945897;28;81835;-53
2021/11/21 10:13:30;;;;;;;10.85;4.22;;;;;;;;;;4899736;28;81685;-52
2021/11/21 10:16:20;;;;;;;8.02;3.72;;;;;;;;;;4874826;28;81306;-53
2021/11/21 10:19:15;;;;;;;3.40;3.10;;;;;;;;;;4774056;28;80486;-48
2021/11/21 10:21:56;;;;;;;6.85;3.92;;;;;;;;;;4894095;28;81859;-50
2021/11/21 10:24:27;;;;;;;5.20;3.85;;;;;;;;;;4925907;28;81863;-51
2021/11/21 10:27:07;;;;;;;7.13;4.03;;;;;;;;;;4865653;28;92472;-53
2021/11/21 10:29:34;;;;;;;6.32;3.40;;;;;;;;;;4944812;28;80528;-59
2021/11/21 10:32:04;;;;;;;9.85;4.60;;;;;;;;;;4945450;28;81840;-66
2021/11/21 10:34:32;;;;;;;5.97;4.40;;;;;;;;;;4884006;28;82085;-64
2021/11/21 10:37:07;;;;;;;5.20;4.00;;;;;;;;;;4911394;28;81545;-46
2021/11/21 10:39:59;;;;;;;8.55;4.50;;;;;;;;;;4914277;28;80422;-54
2021/11/21 10:45:32;;;;;;;7.32;3.50;;;;;;;;;;5000590;28;80209;-58
2021/11/21 10:48:00;;;;;;;9.45;3.72;;;;;;;;;;5010805;28;82002;-46
2021/11/21 10:53:20;;;;;;;5.28;4.18;;;;;;;;;;5031090;27;80808;-52
2021/11/21 10:56:08;;;;;;;5.38;3.78;;;;;;;;;;4889806;28;81584;-49
2021/11/21 10:58:47;;;;;;;4.65;3.88;;;;;;;;;;4965412;28;81738;-52
2021/11/21 11:01:26;;;;;;;9.83;3.70;;;;;;;;;;4955617;28;79991;-55
2021/11/21 11:04:11;;;;;;;4.20;3.08;;;;;;;;;;4959022;28;81884;-58
2021/11/21 11:06:39;;;;;;;7.28;3.20;;;;;;;;;;4957557;28;79990;-54
2021/11/21 11:09:23;;;;;;;4.93;3.30;;;;;;;;;;4958357;28;81815;-55
2021/11/21 11:11:50;;;;;;;;;;;;;;;;;;4929355;28;80193;-37
2021/11/21 11:14:20;;;;;;;4.72;3.47;;;;;;;;;;4965612;28;80899;-41
2021/11/21 11:16:52;;;;;;;7.47;5.47;;;;;;;;;;4961558;28;80777;-45
2021/11/21 11:19:19;;;;;;;8.18;4.47;;;;;;;;;;4957891;28;81659;-38
2021/11/21 11:21:49;;;;;;;7.85;5.38;;;;;;;;;;4922838;28;80292;-37
2021/11/21 11:24:21;;;;;;;9.80;6.78;;;;;;;;;;4979962;28;81448;-38
2021/11/21 11:27:21;;;;;;;17.00;6.57;;;;;;;;;;4885625;28;80783;-39
2021/11/21 11:29:49;;;;;;;6.70;5.32;;;;;;;;;;4976015;28;80493;-36
2021/11/21 11:32:19;;;;;;;9.90;5.75;;;;;;;;;;4972654;28;80094;-40
2021/11/21 11:34:46;;;;;;;8.98;5.80;;;;;;;;;;4977522;28;82193;-40
2021/11/21 11:37:14;;;;;;;9.68;6.32;;;;;;;;;;4914940;28;81666;-40
2021/11/21 11:39:43;;;;;;;8.20;6.53;;;;;;;;;;4978394;28;81560;-41
2021/11/21 11:42:35;;;;;;;14.20;6.50;;;;;;;;;;4976644;28;80515;-41
2021/11/21 11:45:05;;;;;;;10.10;5.82;;;;;;;;;;4944176;28;81747;-42
2021/11/21 11:47:32;;;;;;;10.80;6.65;;;;;;;;;;4976898;28;80843;-39
2021/11/21 11:49:59;;;;;;;9.57;6.40;;;;;;;;;;4979211;28;81659;-39
2021/11/21 11:52:55;;;;;;;15.85;8.68;;;;;;;;;;4977857;28;80312;-40
2021/11/21 11:55:24;;;;;;;9.05;6.00;;;;;;;;;;4995317;28;82069;-39
2021/11/21 11:57:52;;;;;;;8.50;6.95;;;;;;;;;;4997733;28;82154;-38
2021/11/21 12:00:31;;;;;;;8.57;6.15;;;;;;;;;;4959321;28;81518;-39
2021/11/21 12:02:59;;;;;;;13.63;8.20;;;;;;;;;;4972802;28;80933;-40
2021/11/21 12:05:36;;;;;;;9.13;6.43;;;;;;;;;;4934607;28;82213;-38
2021/11/21 12:08:18;;;;;;;8.55;6.78;;;;;;;;;;4975802;28;82002;-38
2021/11/21 12:10:50;;;;;;;8.75;6.63;;;;;;;;;;4982193;28;81656;-38
2021/11/21 12:13:31;;;;;;;8.75;6.80;;;;;;;;;;4986326;28;80154;-38
2021/11/21 12:16:02;;;;;;;9.15;6.20;;;;;;;;;;4978892;28;82097;-38
2021/11/21 12:18:58;;;;;;;8.52;5.88;;;;;;;;;;4976746;28;81782;-39
2021/11/21 12:21:47;;;;;;;7.38;6.32;;;;;;;;;;4981707;28;81443;-38
2021/11/21 12:24:20;;;;;;;9.50;6.18;;;;;;;;;;4982345;28;80221;-38
2021/11/21 12:26:47;;;;;;;7.45;5.28;;;;;;;;;;4977696;28;81835;-38
2021/11/21 12:29:34;;;;;;;7.30;6.13;;;;;;;;;;4975813;28;80723;-37
2021/11/21 12:32:19;;;;;;;8.30;6.53;;;;;;;;;;4985575;28;81491;-38
2021/11/21 12:34:49;;;;;;;7.40;5.30;;;;;;;;;;4982877;28;80248;-38
2021/11/21 12:37:17;;;;;;;7.10;5.53;;;;;;;;;;4979934;28;82033;-38
2021/11/21 12:39:48;;;;;;;8.35;6.43;;;;;;;;;;4981185;28;81655;-38
2021/11/21 12:42:17;;;;;;;9.07;5.80;;;;;;;;;;4986431;28;81680;-39
2021/11/21 12:44:45;;;;;;;7.97;6.00;;;;;;;;;;4985387;28;80676;-40
2021/11/21 12:47:14;;;;;;;11.52;6.85;;;;;;;;;;4967176;28;81679;-40
2021/11/21 12:49:43;;;;;;;8.07;5.53;;;;;;;;;;4979402;28;81886;-40
2021/11/21 12:52:13;;;;;;;8.20;5.45;;;;;;;;;;4980830;28;81811;-41
2021/11/21 12:54:41;;;;;;;8.57;6.55;;;;;;;;;;4985951;28;80286;-41
2021/11/21 12:57:11;;;;;;;7.88;5.85;;;;;;;;;;4984727;28;81865;-43
2021/11/21 12:59:56;;;;;;;9.95;5.53;;;;;;;;;;4978377;28;81855;-40
2021/11/21 13:02:26;;;;;;;8.93;6.60;;;;;;;;;;4981292;28;81419;-40
2021/11/21 13:04:59;;;;;;;16.08;7.72;;;;;;;;;;4947968;28;80614;-41
2021/11/21 13:07:38;;;;;;;11.32;6.90;;;;;;;;;;4970522;28;81921;-40
2021/11/21 13:10:14;;;;;;;11.77;8.25;;;;;;;;;;4961397;28;81806;-46
2021/11/21 13:12:44;;;;;;;11.25;6.72;;;;;;;;;;4956971;28;80606;-40
2021/11/21 13:15:16;;;;;;;7.80;6.00;;;;;;;;;;4939855;28;80251;-40
2021/11/21 13:17:45;;;;;;;8.27;5.97;;;;;;;;;;4996216;28;82104;-41
2021/11/21 13:20:13;;;;;;;17.10;6.85;;;;;;;;;;4983024;28;81944;-40
2021/11/21 13:23:01;;;;;;;9.52;6.82;;;;;;;;;;4983183;28;81541;-40
2021/11/21 13:25:52;;;;;;;10.32;5.68;;;;;;;;;;4984020;28;80316;-51
2021/11/21 13:28:37;;;;;;;13.38;7.28;;;;;;;;;;4985554;28;82181;-42
2021/11/21 13:31:13;;;;;;;24.92;5.63;;;;;;;;;;4982890;28;81957;-56
2021/11/21 13:33:42;;;;;;;7.72;5.53;;;;;;;;;;4981060;28;81462;-48
2021/11/21 13:36:23;;;;;;;12.27;5.45;;;;;;;;;;4928657;28;80228;-47
2021/11/21 13:38:52;;;;;;;11.32;6.20;;;;;;;;;;4985192;28;81867;-49
2021/11/21 13:41:20;;;;;;;13.77;6.72;;;;;;;;;;4981488;28;82351;-48
2021/11/21 13:43:51;;;;;;;10.02;6.50;;;;;;;;;;4982631;28;81531;-47
2021/11/21 13:46:39;;;;;;;12.65;5.82;;;;;;;;;;4980435;28;80241;-47
2021/11/21 13:49:19;;;;;;;9.32;5.45;;;;;;;;;;4981951;28;81866;-45
2021/11/21 13:51:56;;;;;;;8.68;5.50;;;;;;;;;;4982850;28;81728;-47
2021/11/21 13:54:27;;;;;;;10.65;5.35;;;;;;;;;;4984332;28;81435;-47
2021/11/21 13:56:54;;;;;;;6.50;4.00;;;;;;;;;;4985104;28;80125;-49
2021/11/21 13:59:21;;;;;;;9.00;5.38;;;;;;;;;;4984934;28;80759;-46
2021/11/21 14:01:53;;;;;;;9.38;6.53;;;;;;;;;;4984121;28;81815;-44
2021/11/21 14:04:30;;;;;;;7.25;4.97;;;;;;;;;;4979654;28;81340;-47
2021/11/21 14:07:14;;;;;;;9.88;5.88;;;;;;;;;;4974669;28;82251;-45
2021/11/21 14:10:00;;;;;;;9.68;6.65;;;;;;;;;;4977176;28;82440;-46
2021/11/21 14:12:46;;;;;;;9.43;5.95;;;;;;;;;;4982221;28;80936;-46
2021/11/21 14:15:13;;;;;;;7.70;5.93;;;;;;;;;;4985069;28;81643;-46
2021/11/21 14:17:46;;;;;;;8.32;5.38;;;;;;;;;;4982273;28;80175;-45
2021/11/21 14:20:30;;;;;;;11.13;6.65;;;;;;;;;;4980647;28;82079;-45
2021/11/21 14:23:01;;;;;;;11.27;6.65;;;;;;;;;;4981605;28;81662;-47
2021/11/21 14:25:36;;;;;;;9.20;6.40;;;;;;;;;;4983627;28;81464;-45
2021/11/21 14:28:07;;;;;;;19.15;5.93;;;;;;;;;;4971423;28;80694;-47
2021/11/21 14:31:10;;;;;;;10.50;6.30;;;;;;;;;;4965881;28;81164;-47
2021/11/21 14:33:39;;;;;;;10.38;6.20;;;;;;;;;;4972838;28;81121;-44
2021/11/21 14:36:16;;;;;;;13.55;5.78;;;;;;;;;;4973927;28;81286;-43
2021/11/21 14:39:08;;;;;;;12.52;5.70;;;;;;;;;;4980054;28;81252;-48
2021/11/21 14:41:43;;;;;;;7.75;5.50;;;;;;;;;;4984445;28;82079;-44
2021/11/21 14:44:16;;;;;;;13.13;3.97;;;;;;;;;;4983371;28;81745;-43
2021/11/21 14:46:44;;;;;;;7.82;4.05;;;;;;;;;;4979980;28;81462;-45
2021/11/21 14:49:12;;;;;;;5.78;4.35;;;;;;;;;;4984472;28;81966;-46
2021/11/21 14:51:40;;;;;;;6.13;3.90;;;;;;;;;;4982136;28;82128;-45
2021/11/21 14:54:10;;;;;;;4.80;3.45;;;;;;;;;;4983499;28;81688;-46
2021/11/21 14:56:38;;;;;;;7.10;3.72;;;;;;;;;;4983518;28;81535;-47
2021/11/21 14:59:08;;;;;;;5.80;4.20;;;;;;;;;;4983705;28;80034;-44
2021/11/21 15:01:37;;;;;;;4.13;3.15;;;;;;;;;;4982624;28;82057;-44
2021/11/21 15:04:04;;;;;;;5.50;3.17;;;;;;;;;;4983788;28;80961;-46
2021/11/21 15:06:33;;;;;;;4.22;3.13;;;;;;;;;;4981425;28;82118;-47
2021/11/21 15:09:04;;;;;;;4.43;2.92;;;;;;;;;;4983969;28;80107;-46
2021/11/21 15:11:33;;;;;;;5.60;4.32;;;;;;;;;;4983428;28;82589;-45
2021/11/21 15:14:00;;;;;;;4.03;3.40;;;;;;;;;;4982713;28;81639;-51
2021/11/21 15:16:28;;;;;;;5.88;3.45;;;;;;;;;;4982872;28;81939;-47
2021/11/21 15:18:56;;;;;;;4.00;3.00;;;;;;;;;;4982374;28;81765;-47
2021/11/21 15:21:24;;;;;;;3.83;2.67;;;;;;;;;;4982678;28;84529;-47
2021/11/21 15:23:51;;;;;;;4.63;3.38;;;;;;;;;;4982705;28;83526;-46
2021/11/21 15:26:24;;;;;;;4.45;2.90;;;;;;;;;;4983525;28;81879;-47
2021/11/21 15:28:51;;;;;;;5.18;2.63;;;;;;;;;;4982643;28;81895;-44
2021/11/21 15:31:18;;;;;;;3.70;2.90;;;;;;;;;;4980769;28;83875;-46
2021/11/21 15:33:48;;;;;;;4.75;3.13;;;;;;;;;;4981709;28;81897;-47
2021/11/21 15:36:16;;;;;;;5.20;2.75;;;;;;;;;;4980886;28;81879;-44
2021/11/21 15:38:43;;;;;;;3.60;2.97;;;;;;;;;;4983530;28;81211;-44
2021/11/21 15:41:10;;;;;;;8.93;4.47;;;;;;;;;;4986218;28;83612;-48
2021/11/21 15:43:37;;;;;;;4.90;3.47;;;;;;;;;;4985643;28;83220;-43
2021/11/21 15:46:04;;;;;;;3.75;2.58;;;;;;;;;;4984794;28;82883;-47
2021/11/21 15:48:32;;;;;;;4.70;3.55;;;;;;;;;;4983508;28;81826;-45
2021/11/21 15:50:59;;;;;;;6.35;3.88;;;;;;;;;;4983672;28;83532;-47
2021/11/21 15:53:26;;;;;;;6.95;3.33;;;;;;;;;;4985364;28;82420;-47
2021/11/21 15:55:54;;;;;;;3.58;2.85;;;;;;;;;;4984669;28;81809;-47
2021/11/21 15:58:21;;;;;;;3.65;2.65;;;;;;;;;;4986283;28;82234;-46
2021/11/21 16:00:48;;;;;;;3.95;2.75;;;;;;;;;;4985567;28;83456;-43
2021/11/21 16:03:17;;;;;;;3.83;2.90;;;;;;;;;;4985754;28;83215;-44
2021/11/21 16:05:46;;;;;;;2.83;2.30;;;;;;;;;;4986401;28;81786;-44
2021/11/21 16:08:13;;;;;;;5.03;2.80;;;;;;;;;;4984955;28;81855;-44
2021/11/21 16:10:41;;;;;;;4.43;2.60;;;;;;;;;;4985373;28;83451;-47
2021/11/21 16:13:08;;;;;;;3.97;3.22;;;;;;;;;;4983599;28;83242;-43
2021/11/21 16:15:35;;;;;;;4.20;3.28;;;;;;;;;;4984063;28;81896;-45
2021/11/21 16:18:03;;;;;;;3.67;2.67;;;;;;;;;;4984164;28;81825;-47
2021/11/21 16:20:30;;;;;;;3.95;2.92;;;;;;;;;;4985324;28;83755;-47
2021/11/21 16:22:57;;;;;;;5.75;3.25;;;;;;;;;;4984292;28;83566;-45
2021/11/21 16:25:24;;;;;;;6.60;3.83;;;;;;;;;;4986108;28;81915;-47
2021/11/21 16:27:53;;;;;;;7.50;3.28;;;;;;;;;;4982431;28;81587;-47
2021/11/21 16:30:27;;;;;;;6.65;2.75;;;;;;;;;;4985174;28;82655;-44
2021/11/21 16:32:54;;;;;;;7.47;3.03;;;;;;;;;;4985785;28;83606;-54
2021/11/21 16:35:22;;;;;;;4.32;3.25;;;;;;;;;;4984974;28;82764;-47
2021/11/21 16:37:49;;;;;;;6.38;3.75;;;;;;;;;;4984410;28;81935;-47
2021/11/21 16:40:21;;;;;;;8.25;3.30;;;;;;;;;;4984653;28;82736;-45
2021/11/21 16:42:48;;;;;;;12.43;3.47;;;;;;;;;;4978704;28;83557;-51
2021/11/21 16:45:16;;;;;;;7.80;3.60;;;;;;;;;;4984379;28;81761;-48
2021/11/21 16:47:43;;;;;;;4.03;3.08;;;;;;;;;;4979292;28;82329;-51
2021/11/21 16:50:13;;;;;;;4.30;3.33;;;;;;;;;;4982422;28;83737;-46
2021/11/21 16:52:40;;;;;;;7.40;3.83;;;;;;;;;;4983664;28;81458;-43
2021/11/21 16:55:11;;;;;;;6.25;3.88;;;;;;;;;;4984752;28;81669;-48
2021/11/21 16:57:41;;;;;;;;;;;;;;;;;;4984039;28;81892;-43
2021/11/21 17:00:16;;;;;;;10.13;4.18;;;;;;;;;;4983539;28;84533;-48
2021/11/21 17:02:43;;;;;;;13.93;6.72;;;;;;;;;;4982235;28;84391;-46
2021/11/21 17:05:10;;;;;;;11.20;9.52;;;;;;;;;;4984589;28;81851;-47
2021/11/21 17:07:37;;;;;;;14.82;11.57;;;;;;;;;;4984734;28;81896;-48
2021/11/21 17:10:06;;;;;;;20.13;11.77;;;;;;;;;;4983290;28;83426;-46
2021/11/21 17:12:33;;;;;;;15.32;12.75;;;;;;;;;;4981430;28;84538;-57
2021/11/21 17:15:04;;;;;;;19.52;11.68;;;;;;;;;;4974481;28;84045;-59
2021/11/21 17:17:34;;;;;;;12.10;9.77;;;;;;;;;;4984940;28;82476;-60
2021/11/21 17:20:07;;;;;;;11.48;9.50;;;;;;;;;;4983342;28;84320;-62
2021/11/21 17:22:34;;;;;;;16.65;9.98;;;;;;;;;;4982700;28;83440;-59
2021/11/21 17:25:01;;;;;;;14.10;7.97;;;;;;;;;;4973539;28;83243;-61
2021/11/21 17:27:29;;;;;;;11.07;7.50;;;;;;;;;;4979852;28;81954;-60
2021/11/21 17:29:57;;;;;;;8.65;7.75;;;;;;;;;;4985217;28;83695;-63
2021/11/21 17:32:24;;;;;;;21.27;8.63;;;;;;;;;;4976015;28;83398;-68
2021/11/21 17:34:51;;;;;;;11.50;7.65;;;;;;;;;;4977434;28;81897;-66
2021/11/21 17:37:20;;;;;;;10.52;8.00;;;;;;;;;;4983017;28;82162;-68
2021/11/21 17:39:47;;;;;;;14.27;8.73;;;;;;;;;;4984115;28;83768;-63
2021/11/21 17:42:15;;;;;;;11.35;6.85;;;;;;;;;;4982398;28;83458;-66
2021/11/21 17:44:42;;;;;;;14.02;7.25;;;;;;;;;;4981322;28;82152;-61
2021/11/21 17:47:10;;;;;;;14.60;8.80;;;;;;;;;;4980044;28;81879;-62
2021/11/21 17:49:47;;;;;;;11.82;7.32;;;;;;;;;;4981280;28;84592;-61
2021/11/21 17:52:14;;;;;;;11.15;8.23;;;;;;;;;;4977887;28;83209;-60
2021/11/21 17:54:41;;;;;;;9.15;7.22;;;;;;;;;;4979628;28;81894;-61
2021/11/21 17:57:08;;;;;;;10.07;7.00;;;;;;;;;;4980870;28;81996;-58
2021/11/21 17:59:35;;;;;;;8.10;5.88;;;;;;;;;;4984135;28;83886;-59
2021/11/21 18:02:02;;;;;;;7.07;6.38;;;;;;;;;;4980454;28;83622;-60
2021/11/21 18:04:30;;;;;;;10.25;5.75;;;;;;;;;;4980970;28;81846;-60
2021/11/21 18:06:59;;;;;;;9.57;5.85;;;;;;;;;;4980755;28;81504;-60
2021/11/21 18:09:27;;;;;;;5.82;4.72;;;;;;;;;;4980975;28;84040;-59
2021/11/21 18:11:55;;;;;;;10.38;5.82;;;;;;;;;;4982505;28;83371;-60
2021/11/21 18:14:22;;;;;;;7.22;4.53;;;;;;;;;;4980967;28;83099;-59
2021/11/21 18:16:48;;;;;;;5.40;4.43;;;;;;;;;;4981023;28;81897;-58
2021/11/21 18:19:16;;;;;;;9.35;4.45;;;;;;;;;;4981957;28;83569;-61
2021/11/21 18:21:45;;;;;;;8.73;5.20;;;;;;;;;;4982741;28;83488;-60
2021/11/21 18:24:14;;;;;;;6.80;4.70;;;;;;;;;;4982377;28;81727;-61
2021/11/21 18:26:44;;;;;;;5.57;4.05;;;;;;;;;;4981754;28;81978;-58
2021/11/21 18:29:16;;;;;;;10.05;4.38;;;;;;;;;;4980628;28;83780;-60
2021/11/21 18:31:43;;;;;;;21.60;5.53;;;;;;;;;;4980911;28;82275;-61
2021/11/21 18:34:10;;;;;;;5.05;4.00;;;;;;;;;;4979616;28;82680;-60
2021/11/21 18:36:37;;;;;;;5.10;3.65;;;;;;;;;;4979660;28;81968;-59
2021/11/21 18:39:04;;;;;;;19.05;5.65;;;;;;;;;;4972739;28;84741;-58
2021/11/21 18:41:31;;;;;;;12.32;4.78;;;;;;;;;;4983488;28;84017;-61
2021/11/21 18:43:58;;;;;;;7.85;6.38;;;;;;;;;;4982356;28;82308;-61
2021/11/21 18:46:26;;;;;;;7.25;6.03;;;;;;;;;;4981584;28;82422;-58
2021/11/21 18:48:53;;;;;;;6.95;5.95;;;;;;;;;;4978167;28;82710;-58
2021/11/21 18:51:20;;;;;;;7.88;5.05;;;;;;;;;;4973576;28;83467;-59
2021/11/21 18:53:49;;;;;;;7.22;4.88;;;;;;;;;;4981466;28;81955;-56
2021/11/21 18:56:28;;;;;;;5.63;4.85;;;;;;;;;;4984296;28;82674;-62
2021/11/21 18:59:09;;;;;;;6.40;3.80;;;;;;;;;;4982434;28;82577;-58
2021/11/21 19:01:36;;;;;;;7.50;3.97;;;;;;;;;;4980792;28;83531;-66
2021/11/21 19:04:03;;;;;;;6.38;4.13;;;;;;;;;;4976192;28;82765;-60
2021/11/21 19:06:31;;;;;;;7.55;3.90;;;;;;;;;;4983980;28;81922;-53
2021/11/21 19:08:58;;;;;;;7.80;4.15;;;;;;;;;;4982854;28;82658;-54
2021/11/21 19:11:30;;;;;;;7.75;6.78;;;;;;;;;;4982293;28;83538;-62
2021/11/21 19:13:57;;;;;;;12.23;7.80;;;;;;;;;;4983303;28;81947;-53
2021/11/21 19:16:24;;;;;;;31.15;17.13;;;;;;;;;;4984861;28;81992;-56
2021/11/21 19:18:51;;;;;;;28.15;16.85;;;;;;;;;;4985024;28;82674;-56
2021/11/21 19:21:19;;;;;;;22.08;14.60;;;;;;;;;;4983972;28;83331;-58
2021/11/21 19:23:46;;;;;;;21.63;17.42;;;;;;;;;;4978629;28;84076;-58